Time;durP1;ratioP1;P1;durP2;ratioP2;P2;SDS_P1;SDS_P2;PMS_P1;PMS_P2;Temp;Humidity;BMP_temperature;BMP_pressure;BME280_temperature;BME280_humidity;BME280_pressure;Samples;Min_cycle;Max_cycle;Signal;HPM_P1;HPM_P2
2021/01/05 00:01:52;;;;;;;2.95;1.52;;;16.90;99.90;;;;;;4156908;34;20098;-87
2021/01/05 00:04:20;;;;;;;6.93;2.22;;;17.00;99.90;;;;;;4147555;34;20095;-87
2021/01/05 00:06:49;;;;;;;3.25;1.10;;;16.90;99.90;;;;;;4145458;34;20060;-87
2021/01/05 00:09:17;;;;;;;4.30;1.92;;;16.80;99.90;;;;;;4146603;34;20244;-87
2021/01/05 00:12:06;;;;;;;3.03;1.95;;;16.80;99.90;;;;;;4145583;34;20053;-86
2021/01/05 00:14:38;;;;;;;2.70;1.40;;;16.70;99.90;;;;;;4146317;34;20555;-86
2021/01/05 00:17:07;;;;;;;3.40;1.08;;;16.70;99.90;;;;;;4158459;34;20072;-86
2021/01/05 00:19:35;;;;;;;3.28;0.80;;;16.70;99.90;;;;;;4152460;34;20096;-86
2021/01/05 00:22:04;;;;;;;2.53;0.75;;;16.70;99.90;;;;;;4145548;34;20099;-87
2021/01/05 00:24:34;;;;;;;1.67;1.33;;;16.80;99.90;;;;;;4150383;34;20082;-86
2021/01/05 00:27:03;;;;;;;1.35;0.70;;;16.80;99.90;;;;;;4163862;34;20060;-87
2021/01/05 00:29:31;;;;;;;3.78;3.55;;;16.90;99.90;;;;;;4156099;34;20063;-85
2021/01/05 00:32:09;;;;;;;3.50;2.72;;;16.90;99.90;;;;;;4139595;34;20431;-87
2021/01/05 00:34:37;;;;;;;7.43;6.78;;;16.80;99.90;;;;;;4157733;34;20090;-87
2021/01/05 00:37:05;;;;;;;6.90;6.50;;;16.80;99.90;;;;;;4148484;34;20457;-86
2021/01/05 00:39:34;;;;;;;7.60;7.00;;;16.80;99.90;;;;;;4149542;34;20112;-88
2021/01/05 00:42:02;;;;;;;7.50;7.00;;;16.80;99.90;;;;;;4146244;34;20087;-86
2021/01/05 00:44:30;;;;;;;8.52;7.10;;;16.80;99.90;;;;;;4147946;34;20064;-87
2021/01/05 00:46:58;;;;;;;7.57;7.15;;;16.70;99.90;;;;;;4154328;34;20079;-86
2021/01/05 00:49:26;;;;;;;7.65;7.18;;;16.70;99.90;;;;;;4150629;34;20061;-86
2021/01/05 00:51:58;;;;;;;6.03;5.72;;;16.70;99.90;;;;;;4143576;34;20841;-86
2021/01/05 00:54:31;;;;;;;4.45;4.12;;;16.60;99.90;;;;;;4136233;34;20465;-87
2021/01/05 00:57:06;;;;;;;2.35;2.10;;;16.50;99.90;;;;;;4152851;34;20082;-86
2021/01/05 00:59:36;;;;;;;4.68;1.02;;;16.50;99.90;;;;;;4153772;34;20049;-86
2021/01/05 01:02:05;;;;;;;1.77;0.70;;;16.50;99.90;;;;;;4138605;34;20529;-86
2021/01/05 01:04:35;;;;;;;2.67;0.90;;;16.40;99.90;;;;;;4140444;34;20150;-86
2021/01/05 01:07:04;;;;;;;0.82;0.70;;;16.40;99.90;;;;;;4154032;34;20436;-86
2021/01/05 01:09:33;;;;;;;2.70;2.50;;;16.30;99.90;;;;;;4150528;34;20163;-87
2021/01/05 01:12:15;;;;;;;2.95;2.60;;;16.30;99.90;;;;;;4153571;34;20087;-87
2021/01/05 01:14:46;;;;;;;1.85;1.00;;;16.10;99.90;;;;;;4152449;34;20056;-86
2021/01/05 01:17:14;;;;;;;2.67;0.70;;;16.10;99.90;;;;;;4150948;34;20138;-87
2021/01/05 01:19:43;;;;;;;3.00;0.88;;;16.00;99.90;;;;;;4146215;34;20241;-86
2021/01/05 01:22:12;;;;;;;1.48;0.88;;;15.90;99.90;;;;;;4139108;34;20068;-86
2021/01/05 01:24:40;;;;;;;1.48;0.80;;;15.90;99.90;;;;;;4158366;34;20115;-87
2021/01/05 01:27:20;;;;;;;1.80;0.95;;;15.90;99.90;;;;;;4157683;34;20098;-87
2021/01/05 01:29:50;;;;;;;4.03;0.75;;;15.90;99.90;;;;;;4150706;34;20218;-86
2021/01/05 01:32:18;;;;;;;4.40;0.90;;;15.80;99.90;;;;;;4157872;34;20109;-85
2021/01/05 01:34:46;;;;;;;10.00;1.58;;;15.80;99.90;;;;;;4158783;34;20601;-86
2021/01/05 01:37:17;;;;;;;2.78;0.98;;;15.80;99.90;;;;;;4153569;34;20070;-87
2021/01/05 01:39:46;;;;;;;1.60;0.80;;;15.80;99.90;;;;;;4150632;34;20076;-86
2021/01/05 01:42:19;;;;;;;5.15;1.20;;;15.80;99.90;;;;;;4136595;34;20101;-87
2021/01/05 01:44:49;;;;;;;2.50;0.75;;;15.80;99.90;;;;;;4150545;34;20115;-87
2021/01/05 01:47:23;;;;;;;0.70;0.60;;;15.80;99.90;;;;;;4148109;34;20145;-87
2021/01/05 01:50:01;;;;;;;1.65;0.80;;;15.80;99.90;;;;;;4158383;34;20056;-86
2021/01/05 01:52:36;;;;;;;2.95;0.80;;;15.70;99.90;;;;;;4152148;34;20155;-87
2021/01/05 01:55:13;;;;;;;2.58;0.70;;;15.80;99.90;;;;;;4146304;34;20486;-86
2021/01/05 01:58:02;;;;;;;2.22;0.62;;;15.80;99.90;;;;;;4129848;34;20475;-86
2021/01/05 02:01:05;;;;;;;3.67;1.12;;;15.80;99.90;;;;;;4147515;34;20074;-87
2021/01/05 02:04:04;;;;;;;12.23;0.97;;;15.80;99.90;;;;;;4147719;34;20061;-86
2021/01/05 02:07:11;;;;;;;3.85;0.77;;;15.80;99.90;;;;;;4148938;34;20608;-87
2021/01/05 02:09:59;;;;;;;1.42;0.98;;;15.70;99.90;;;;;;4154364;34;20096;-86
2021/01/05 02:12:37;;;;;;;3.70;0.70;;;15.70;99.90;;;;;;4161913;34;20068;-86
2021/01/05 02:15:31;;;;;;;4.28;0.95;;;15.60;99.90;;;;;;4160123;34;20060;-87
2021/01/05 02:18:27;;;;;;;2.92;1.35;;;15.60;99.90;;;;;;4147007;34;20088;-86
2021/01/05 02:21:04;;;;;;;1.75;0.80;;;15.60;99.90;;;;;;4154251;34;20074;-86
2021/01/05 02:23:54;;;;;;;1.60;0.77;;;15.70;99.90;;;;;;4153105;34;20084;-87
2021/01/05 02:26:30;;;;;;;5.80;1.12;;;15.60;99.90;;;;;;4152942;34;20444;-87
2021/01/05 02:29:04;;;;;;;1.52;0.55;;;15.70;99.90;;;;;;4152121;34;20067;-85
2021/01/05 02:32:09;;;;;;;5.32;1.00;;;15.70;99.90;;;;;;4155812;34;20060;-87
2021/01/05 02:34:40;;;;;;;2.85;0.75;;;15.70;99.90;;;;;;4146760;34;20466;-86
2021/01/05 02:37:39;;;;;;;2.60;1.12;;;15.60;99.90;;;;;;4150074;34;20068;-86
2021/01/05 02:40:32;;;;;;;7.60;1.42;;;15.70;99.90;;;;;;4126574;34;20267;-86
2021/01/05 02:44:01;;;;;;;4.32;1.48;;;15.80;99.90;;;;;;4087726;35;20699;-86
2021/01/05 02:46:52;;;;;;;4.95;1.35;;;15.80;99.90;;;;;;4117951;34;20168;-87
2021/01/05 02:49:57;;;;;;;2.33;1.50;;;15.80;99.90;;;;;;4127511;34;20075;-86
2021/01/05 02:53:05;;;;;;;8.38;1.12;;;15.90;99.90;;;;;;4122244;34;20119;-86
2021/01/05 02:56:28;;;;;;;8.50;1.65;;;15.90;99.90;;;;;;4126951;34;20122;-87
2021/01/05 02:59:22;;;;;;;11.48;2.08;;;15.80;99.90;;;;;;4130050;34;20056;-87
2021/01/05 03:02:36;;;;;;;2.22;0.80;;;15.90;99.90;;;;;;4152464;34;20132;-88
2021/01/05 03:05:28;;;;;;;3.15;0.95;;;15.80;99.90;;;;;;4105185;34;20536;-86
2021/01/05 03:08:28;;;;;;;8.43;1.00;;;15.90;99.90;;;;;;4124070;34;20136;-86
2021/01/05 03:15:11;;;;;;;11.57;1.80;;;15.80;99.90;;;;;;4152501;34;20056;-87
2021/01/05 03:18:24;;;;;;;6.62;4.97;;;15.90;99.90;;;;;;4091789;34;20061;-86
2021/01/05 03:21:37;;;;;;;14.67;6.70;;;16.00;99.90;;;;;;4154552;28;20060;31
2021/01/05 03:24:22;;;;;;;9.85;4.78;;;15.90;99.90;;;;;;4136067;29;20165;-86
2021/01/05 03:27:05;;;;;;;19.15;17.58;;;16.00;99.90;;;;;;4156538;34;20072;-87
2021/01/05 03:30:12;;;;;;;6.07;1.50;;;16.00;99.90;;;;;;4123991;34;20057;-87
2021/01/05 03:32:55;;;;;;;28.23;26.52;;;15.90;99.90;;;;;;4143794;34;20076;-88
2021/01/05 03:35:39;;;;;;;24.60;23.00;;;15.90;99.90;;;;;;4151266;34;20048;-87
2021/01/05 03:38:25;;;;;;;29.40;26.60;;;15.90;99.90;;;;;;4141110;34;20064;-86
2021/01/05 03:41:12;;;;;;;12.75;11.60;;;16.00;99.90;;;;;;4166533;34;20472;-87
2021/01/05 03:44:04;;;;;;;37.05;34.40;;;16.00;99.90;;;;;;4129849;34;20123;-86
2021/01/05 03:46:50;;;;;;;34.67;32.05;;;16.00;99.90;;;;;;4145914;34;20130;-87
2021/01/05 03:49:33;;;;;;;9.65;1.75;;;16.00;99.90;;;;;;4149198;34;20432;-87
2021/01/05 03:52:23;;;;;;;4.53;1.60;;;15.90;99.90;;;;;;4149950;34;20106;-87
2021/01/05 03:55:17;;;;;;;1.92;1.10;;;15.90;99.90;;;;;;4127442;34;20132;-87
2021/01/05 03:58:09;;;;;;;3.45;1.10;;;15.80;99.90;;;;;;4125618;34;20061;-87
2021/01/05 04:00:56;;;;;;;5.15;1.77;;;15.80;99.90;;;;;;4168811;34;20109;-87
2021/01/05 04:03:24;;;;;;;7.05;1.95;;;15.90;99.90;;;;;;4177391;34;20060;-87
2021/01/05 04:05:52;;;;;;;7.00;2.15;;;15.90;99.90;;;;;;4161901;34;20101;-86
2021/01/05 04:08:20;;;;;;;5.70;1.70;;;16.00;99.90;;;;;;4168237;34;20076;-87
2021/01/05 04:10:48;;;;;;;5.97;1.77;;;16.00;99.90;;;;;;4165287;34;20086;-87
2021/01/05 04:13:16;;;;;;;5.05;1.50;;;16.00;99.90;;;;;;4163393;34;20096;-87
2021/01/05 04:15:44;;;;;;;5.10;0.82;;;16.00;99.90;;;;;;4162775;34;20952;-87
2021/01/05 04:18:12;;;;;;;6.93;1.52;;;16.00;99.90;;;;;;4165511;34;20064;-87
2021/01/05 04:20:40;;;;;;;9.00;1.62;;;16.00;99.90;;;;;;4164491;34;20465;-86
2021/01/05 04:23:09;;;;;;;7.75;1.77;;;16.00;99.90;;;;;;4163486;34;20412;-88
2021/01/05 04:25:37;;;;;;;7.95;1.60;;;16.00;99.90;;;;;;4155860;34;20493;-87
2021/01/05 04:28:05;;;;;;;4.90;1.80;;;16.00;99.90;;;;;;4168088;34;20117;-86
2021/01/05 04:30:34;;;;;;;10.57;2.55;;;16.00;99.90;;;;;;4163667;34;20155;-87
2021/01/05 04:33:07;;;;;;;4.72;1.20;;;16.10;99.90;;;;;;4157388;34;20123;-87
2021/01/05 04:35:35;;;;;;;5.93;1.60;;;16.10;99.90;;;;;;4158708;34;20106;-86
2021/01/05 04:38:05;;;;;;;7.68;1.75;;;16.20;99.90;;;;;;4169107;34;20072;-86
2021/01/05 04:40:42;;;;;;;7.75;1.67;;;16.20;99.90;;;;;;4166254;34;20172;-87
2021/01/05 04:43:20;;;;;;;6.05;2.00;;;16.20;99.90;;;;;;4156832;34;20184;-87
2021/01/05 04:46:07;;;;;;;8.07;1.65;;;16.30;99.90;;;;;;4171035;34;20112;-86
2021/01/05 04:48:43;;;;;;;17.27;2.05;;;16.30;99.90;;;;;;4161655;34;20117;-87
2021/01/05 04:51:53;;;;;;;10.82;1.80;;;16.40;99.90;;;;;;4163416;34;20472;-88
2021/01/05 04:54:29;;;;;;;5.97;1.83;;;16.50;99.90;;;;;;4157740;34;20173;-87
2021/01/05 04:57:10;;;;;;;23.08;21.25;;;16.50;99.90;;;;;;4159857;34;20830;-87
2021/01/05 05:00:04;;;;;;;22.90;21.33;;;16.50;99.90;;;;;;4159659;34;20407;-88
2021/01/05 05:02:40;;;;;;;22.80;20.92;;;16.50;99.90;;;;;;4150107;34;20175;-87
2021/01/05 05:05:23;;;;;;;24.48;22.45;;;16.50;99.90;;;;;;4176520;34;20407;-87
2021/01/05 05:08:13;;;;;;;24.05;22.42;;;16.50;99.90;;;;;;4166695;34;22041;-86
2021/01/05 05:10:58;;;;;;;24.40;22.25;;;16.60;99.90;;;;;;4156276;34;20067;-87
2021/01/05 05:13:53;;;;;;;8.20;1.85;;;16.60;99.90;;;;;;4324873;28;20115;-87
2021/01/05 05:17:20;;;;;;;9.70;1.45;;;16.60;99.90;;;;;;4152435;34;20094;-87
2021/01/05 05:19:51;;;;;;;4.68;1.70;;;16.60;99.90;;;;;;4111591;34;20185;-86
2021/01/05 05:22:22;;;;;;;3.33;1.40;;;16.60;99.90;;;;;;4123475;29;20160;-86
2021/01/05 05:24:54;;;;;;;6.85;1.60;;;16.60;99.90;;;;;;4152771;28;20746;-86
2021/01/05 05:27:32;;;;;;;4.05;1.25;;;16.60;99.90;;;;;;4150229;34;20112;-87
2021/01/05 05:30:13;;;;;;;2.50;0.93;;;16.60;99.90;;;;;;4149304;34;20425;-87
2021/01/05 05:32:54;;;;;;;3.47;1.23;;;16.60;99.90;;;;;;4152431;34;21462;-86
2021/01/05 05:35:41;;;;;;;6.30;1.20;;;16.70;99.90;;;;;;4160599;34;20056;-87
2021/01/05 05:38:38;;;;;;;8.43;1.87;;;16.70;99.90;;;;;;4249694;28;20535;31
2021/01/05 05:41:36;;;;;;;13.62;8.75;;;16.60;99.90;;;;;;4140396;34;20178;-88
2021/01/05 05:44:21;;;;;;;6.60;5.90;;;16.60;99.90;;;;;;4151749;34;20125;-88
2021/01/05 05:46:55;;;;;;;8.40;3.33;;;16.70;99.90;;;;;;4253234;28;20148;-87
2021/01/05 05:49:50;;;;;;;11.60;10.38;;;16.70;99.90;;;;;;4151966;28;20069;-87
2021/01/05 05:52:39;;;;;;;17.73;16.57;;;16.70;99.90;;;;;;4155847;34;20107;-87
2021/01/05 05:55:30;;;;;;;4.32;3.90;;;16.70;99.90;;;;;;4158047;34;20053;-87
2021/01/05 05:58:00;;;;;;;9.98;5.70;;;16.80;99.90;;;;;;4154202;34;20108;-88
2021/01/05 06:00:36;;;;;;;46.15;43.13;;;16.80;99.90;;;;;;4148654;34;20052;-87
2021/01/05 06:03:07;;;;;;;40.72;37.45;;;16.90;99.90;;;;;;4153870;34;20140;-87
2021/01/05 06:05:37;;;;;;;9.60;8.77;;;16.90;99.90;;;;;;4296376;28;20983;-87
2021/01/05 06:08:07;;;;;;;10.25;2.35;;;17.00;99.90;;;;;;4148586;34;20119;-92
2021/01/05 06:10:35;;;;;;;9.07;1.67;;;16.90;99.90;;;;;;4137739;34;20154;-88
2021/01/05 06:13:03;;;;;;;4.22;1.42;;;16.90;99.90;;;;;;4140796;34;20040;-88
2021/01/05 06:15:33;;;;;;;8.45;1.40;;;16.80;99.90;;;;;;4303846;28;20092;-87
2021/01/05 06:18:06;;;;;;;5.40;1.37;;;16.90;99.90;;;;;;4158012;28;20052;-87
2021/01/05 06:20:35;;;;;;;10.63;1.60;;;16.80;99.90;;;;;;4152715;34;20123;-87
2021/01/05 06:23:04;;;;;;;3.92;1.20;;;16.80;99.90;;;;;;4156817;34;20064;-87
2021/01/05 06:25:32;;;;;;;9.88;1.85;;;16.80;99.90;;;;;;4144530;34;20120;-87
2021/01/05 06:28:00;;;;;;;9.88;1.62;;;16.80;99.90;;;;;;4148342;34;20161;-88
2021/01/05 06:30:28;;;;;;;9.30;1.83;;;16.80;99.90;;;;;;4153820;34;20111;-87
2021/01/05 06:32:57;;;;;;;7.47;6.72;;;16.80;99.90;;;;;;4167780;34;20103;-88
2021/01/05 06:35:25;;;;;;;10.13;2.15;;;16.80;99.90;;;;;;4164113;34;20110;-87
2021/01/05 06:37:54;;;;;;;4.40;1.40;;;16.80;99.90;;;;;;4151179;34;20060;-86
2021/01/05 06:40:25;;;;;;;10.85;6.53;;;16.80;99.90;;;;;;4149233;34;20517;-86
2021/01/05 06:42:54;;;;;;;6.07;1.70;;;16.70;99.90;;;;;;4154956;34;20571;-87
2021/01/05 06:45:26;;;;;;;12.88;8.73;;;16.60;99.90;;;;;;4142518;34;20567;-87
2021/01/05 06:47:55;;;;;;;20.48;15.80;;;16.70;99.90;;;;;;4149604;34;20068;-87
2021/01/05 06:50:27;;;;;;;31.27;28.52;;;16.60;99.90;;;;;;4142321;34;20396;-87
2021/01/05 06:52:55;;;;;;;7.30;3.92;;;16.70;99.90;;;;;;4158769;34;20564;-87
2021/01/05 06:55:23;;;;;;;7.35;1.75;;;16.80;99.90;;;;;;4160641;34;20052;-86
2021/01/05 06:57:51;;;;;;;3.58;1.20;;;16.70;99.90;;;;;;4144481;34;20345;-87
2021/01/05 07:00:23;;;;;;;13.62;10.38;;;16.70;99.90;;;;;;4153921;34;20505;-87
2021/01/05 07:02:51;;;;;;;21.33;19.87;;;16.70;99.90;;;;;;4152516;34;20060;-87
2021/01/05 07:05:20;;;;;;;22.98;21.40;;;16.70;99.90;;;;;;4148303;34;20619;-87
2021/01/05 07:07:49;;;;;;;31.50;29.05;;;16.80;99.90;;;;;;4148137;34;20151;-87
2021/01/05 07:10:19;;;;;;;29.95;27.05;;;16.90;99.90;;;;;;4151540;34;20092;-88
2021/01/05 07:12:48;;;;;;;17.62;3.60;;;16.90;99.90;;;;;;4166238;34;20118;-89
2021/01/05 07:15:23;;;;;;;9.57;5.00;;;17.00;99.90;;;;;;4140691;34;20156;-88
2021/01/05 07:17:51;;;;;;;6.35;2.12;;;17.00;99.90;;;;;;4157632;34;20119;-87
2021/01/05 07:20:19;;;;;;;12.35;1.50;;;17.00;99.90;;;;;;4143881;34;20377;-88
2021/01/05 07:22:47;;;;;;;11.35;1.70;;;17.00;99.90;;;;;;4154454;34;20639;-88
2021/01/05 07:25:16;;;;;;;4.60;1.25;;;17.00;99.90;;;;;;4142121;34;20102;-88
2021/01/05 07:27:44;;;;;;;10.23;1.67;;;17.00;99.90;;;;;;4154432;34;20462;-87
2021/01/05 07:30:13;;;;;;;6.97;1.75;;;17.00;99.90;;;;;;4155034;34;20470;-87
2021/01/05 07:32:41;;;;;;;8.45;1.55;;;16.90;99.90;;;;;;4167983;34;20136;-87
2021/01/05 07:35:11;;;;;;;5.22;1.12;;;16.80;99.90;;;;;;4166752;34;20460;-88
2021/01/05 07:37:42;;;;;;;6.95;1.80;;;16.80;99.90;;;;;;4161061;34;20439;-88
2021/01/05 07:40:13;;;;;;;18.20;2.17;;;16.80;99.90;;;;;;4155754;34;20139;-87
2021/01/05 07:42:41;;;;;;;10.13;1.98;;;16.70;99.90;;;;;;4161682;34;20120;-88
2021/01/05 07:45:17;;;;;;;9.70;1.60;;;16.70;99.90;;;;;;4154663;34;20056;-88
2021/01/05 07:47:45;;;;;;;9.43;1.75;;;16.70;99.90;;;;;;4165738;34;20749;-88
2021/01/05 07:50:20;;;;;;;7.22;1.60;;;16.70;99.90;;;;;;4157365;34;20362;-88
2021/01/05 07:52:48;;;;;;;16.77;1.80;;;16.70;99.90;;;;;;4151645;34;20536;-88
2021/01/05 07:55:25;;;;;;;10.73;1.92;;;16.70;99.90;;;;;;4141104;34;20128;-87
2021/01/05 07:57:53;;;;;;;16.60;1.87;;;16.70;99.90;;;;;;4155853;34;20075;-87
2021/01/05 08:00:26;;;;;;;14.25;5.43;;;16.70;99.90;;;;;;4163870;34;20147;-87
2021/01/05 08:02:56;;;;;;;8.35;2.03;;;16.70;99.90;;;;;;4152178;34;20330;-88
2021/01/05 08:05:26;;;;;;;14.48;3.08;;;16.90;99.90;;;;;;4148279;34;20068;-87
2021/01/05 08:07:56;;;;;;;11.70;3.28;;;17.20;99.90;;;;;;4147917;34;20556;-87
2021/01/05 08:10:29;;;;;;;13.55;2.67;;;;;;;;;;4150360;34;20432;-87
2021/01/05 08:12:58;;;;;;;26.17;20.67;;;;;;;;;;4145012;34;20589;-87
2021/01/05 08:15:30;;;;;;;8.77;1.83;;;18.10;99.90;;;;;;4148643;34;20108;-88
2021/01/05 08:18:00;;;;;;;22.30;20.42;;;18.00;99.90;;;;;;4142498;34;20115;-88
2021/01/05 08:20:30;;;;;;;9.35;2.90;;;19.00;99.90;;;;;;4126025;34;20083;-88
2021/01/05 08:23:01;;;;;;;22.23;20.20;;;20.30;99.90;;;;;;4141013;34;20151;-88
2021/01/05 08:25:30;;;;;;;12.98;8.35;;;21.00;99.90;;;;;;4140372;34;20125;-88
2021/01/05 08:28:00;;;;;;;13.23;6.78;;;22.10;99.90;;;;;;4141930;34;20131;-88
2021/01/05 08:30:30;;;;;;;10.02;3.35;;;21.70;99.90;;;;;;4143698;34;20530;-88
2021/01/05 08:33:02;;;;;;;10.43;6.07;;;23.30;99.90;;;;;;4148748;34;20127;-89
2021/01/05 08:35:30;;;;;;;8.23;5.18;;;24.10;99.90;;;;;;4141969;34;20080;-88
2021/01/05 08:37:59;;;;;;;7.18;2.00;;;25.10;99.90;;;;;;4138428;34;20370;-89
2021/01/05 08:40:33;;;;;;;9.70;2.55;;;25.60;99.90;;;;;;4140513;34;20091;-89
2021/01/05 08:43:05;;;;;;;7.78;3.00;;;26.50;99.90;;;;;;4144416;34;20135;-89
2021/01/05 08:45:33;;;;;;;8.00;2.60;;;27.10;99.00;;;;;;4129864;34;20656;-89
2021/01/05 08:48:02;;;;;;;11.57;3.55;;;27.60;98.10;;;;;;4141258;34;20119;-89
2021/01/05 08:50:34;;;;;;;6.82;2.45;;;27.80;95.30;;;;;;4142102;34;20139;-89
2021/01/05 08:53:07;;;;;;;12.23;1.92;;;27.70;96.10;;;;;;4145589;34;20048;-89
2021/01/05 08:55:36;;;;;;;9.65;2.70;;;26.20;96.90;;;;;;4152396;34;20086;-89
2021/01/05 08:58:05;;;;;;;9.63;2.42;;;27.40;97.50;;;;;;4147844;34;20162;-89
2021/01/05 09:00:34;;;;;;;11.15;2.62;;;;;;;;;;4131635;34;20155;-89
2021/01/05 09:03:02;;;;;;;9.15;2.60;;;29.60;93.60;;;;;;4145781;34;20117;-89
2021/01/05 09:05:46;;;;;;;6.97;2.30;;;30.40;92.50;;;;;;4133593;34;20091;-91
2021/01/05 09:08:15;;;;;;;4.50;1.80;;;31.20;90.70;;;;;;4147170;34;20441;-90
2021/01/05 09:10:45;;;;;;;11.38;2.70;;;31.70;87.00;;;;;;4142177;34;20173;-89
2021/01/05 09:13:13;;;;;;;5.40;2.42;;;32.50;98.70;;;;;;4147304;34;20060;-90
2021/01/05 09:15:41;;;;;;;6.47;2.40;;;32.90;98.40;;;;;;4154673;34;20071;-89
2021/01/05 09:18:09;;;;;;;11.77;3.03;;;32.70;96.40;;;;;;4141076;34;20133;-89
2021/01/05 09:20:38;;;;;;;6.18;1.30;;;32.50;96.50;;;;;;4148096;34;20167;-89
2021/01/05 09:23:06;;;;;;;8.63;2.15;;;31.30;96.00;;;;;;4146716;34;20115;-89
2021/01/05 09:25:37;;;;;;;8.23;2.60;;;29.50;98.20;;;;;;4148506;34;20091;-89
2021/01/05 09:28:06;;;;;;;8.38;3.17;;;29.30;99.10;;;;;;4146959;34;20056;-90
2021/01/05 09:30:34;;;;;;;7.40;2.15;;;31.00;97.20;;;;;;4146809;34;20107;-89
2021/01/05 09:33:02;;;;;;;9.90;2.40;;;30.80;96.30;;;;;;4149693;34;20103;-89
2021/01/05 09:35:30;;;;;;;10.68;2.85;;;30.80;96.10;;;;;;4149842;34;20377;-89
2021/01/05 09:37:58;;;;;;;5.78;2.40;;;31.00;96.60;;;;;;4158457;34;20060;-89
2021/01/05 09:40:26;;;;;;;5.55;2.25;;;31.70;95.00;;;;;;4145869;34;20104;-89
2021/01/05 09:42:54;;;;;;;7.22;2.90;;;31.60;94.10;;;;;;4150905;34;20107;-89
2021/01/05 09:45:23;;;;;;;9.25;2.60;;;32.30;93.10;;;;;;4166083;34;20044;-89
2021/01/05 09:48:01;;;;;;;10.52;2.80;;;33.40;92.50;;;;;;4153899;34;20082;-90
2021/01/05 09:50:29;;;;;;;5.87;1.67;;;33.80;91.60;;;;;;4137806;34;20514;-90
2021/01/05 09:52:57;;;;;;;8.15;1.70;;;33.10;90.10;;;;;;4149683;34;20142;-88
2021/01/05 09:55:26;;;;;;;7.22;1.60;;;31.60;92.50;;;;;;4154619;34;20130;-89
2021/01/05 09:57:54;;;;;;;10.75;1.98;;;30.40;93.30;;;;;;4149946;34;20156;-89
2021/01/05 10:00:23;;;;;;;6.75;1.70;;;28.80;95.00;;;;;;4148119;34;20504;-89
2021/01/05 10:02:51;;;;;;;6.25;2.40;;;28.10;97.90;;;;;;4153160;34;20456;-88
2021/01/05 10:05:20;;;;;;;8.32;1.80;;;29.40;96.50;;;;;;4144826;34;20080;-88
2021/01/05 10:07:49;;;;;;;5.35;1.80;;;29.70;94.80;;;;;;4154814;34;20119;-89
2021/01/05 10:10:26;;;;;;;8.07;2.35;;;30.10;93.90;;;;;;4158250;34;20156;-90
2021/01/05 10:12:54;;;;;;;8.95;4.95;;;31.70;93.00;;;;;;4157236;34;20119;-86
2021/01/05 10:15:25;;;;;;;6.18;2.92;;;33.70;90.90;;;;;;4151617;34;20094;-87
2021/01/05 10:17:53;;;;;;;5.65;2.37;;;35.20;88.00;;;;;;4142142;34;20391;-87
2021/01/05 10:20:22;;;;;;;6.60;3.30;;;36.50;84.80;;;;;;4148605;34;20573;-88
2021/01/05 10:22:51;;;;;;;8.52;1.80;;;37.30;80.60;;;;;;4148739;34;20453;-87
2021/01/05 10:25:19;;;;;;;5.37;1.20;;;35.30;77.80;;;;;;4148957;34;20052;-86
2021/01/05 10:27:47;;;;;;;5.20;1.77;;;32.10;83.50;;;;;;4154848;34;20112;-86
2021/01/05 10:30:17;;;;;;;5.55;2.85;;;32.60;86.60;;;;;;4150093;34;20127;-86
2021/01/05 10:32:46;;;;;;;7.53;1.37;;;33.60;83.80;;;;;;4148485;34;20100;-86
2021/01/05 10:35:17;;;;;;;4.70;1.25;;;33.70;81.20;;;;;;4150244;34;20129;-87
2021/01/05 10:37:47;;;;;;;7.95;2.62;;;33.40;80.00;;;;;;4153637;34;20080;-86
2021/01/05 10:40:17;;;;;;;7.80;1.42;;;34.10;80.70;;;;;;4154341;34;20107;-86
2021/01/05 10:42:49;;;;;;;6.30;1.45;;;33.70;78.10;;;;;;4151027;34;20445;-85
2021/01/05 10:45:21;;;;;;;6.75;1.33;;;32.50;81.00;;;;;;4152390;34;20060;-86
2021/01/05 10:47:49;;;;;;;6.53;1.67;;;31.60;83.60;;;;;;4161155;34;20056;-85
2021/01/05 10:50:21;;;;;;;4.45;1.20;;;31.40;84.50;;;;;;4157303;34;20061;-85
2021/01/05 10:52:50;;;;;;;12.73;1.92;;;30.30;86.60;;;;;;4150737;34;20526;-85
2021/01/05 10:55:21;;;;;;;4.25;1.30;;;29.40;87.10;;;;;;4149211;34;20155;-85
2021/01/05 10:57:50;;;;;;;5.90;1.40;;;28.10;90.80;;;;;;4157324;34;20068;-85
2021/01/05 11:00:20;;;;;;;4.70;1.17;;;28.10;91.60;;;;;;4162895;34;20056;-85
2021/01/05 11:02:48;;;;;;;8.88;2.30;;;27.40;92.60;;;;;;4153179;34;20165;-85
2021/01/05 11:05:17;;;;;;;5.97;2.10;;;27.20;93.40;;;;;;4157327;34;20172;-85
2021/01/05 11:07:51;;;;;;;5.97;1.40;;;27.90;92.40;;;;;;4157612;34;20117;-85
2021/01/05 11:10:21;;;;;;;6.20;1.30;;;29.40;90.50;;;;;;4140463;34;20079;-85
2021/01/05 11:12:49;;;;;;;6.00;1.20;;;28.30;91.60;;;;;;4151363;34;20068;-85
2021/01/05 11:15:18;;;;;;;5.97;1.62;;;27.30;92.50;;;;;;4147225;34;20169;-85
2021/01/05 11:17:46;;;;;;;6.03;1.37;;;26.80;93.80;;;;;;4152711;34;20400;-85
2021/01/05 11:20:19;;;;;;;7.93;2.00;;;26.50;94.00;;;;;;4152861;34;20068;-85
2021/01/05 11:22:50;;;;;;;5.85;1.42;;;27.40;93.10;;;;;;4157312;34;20095;-85
2021/01/05 11:25:19;;;;;;;7.40;1.30;;;27.70;91.70;;;;;;4151946;34;20075;-85
2021/01/05 11:27:50;;;;;;;6.43;2.55;;;26.50;93.60;;;;;;4154515;34;20052;-85
2021/01/05 11:30:22;;;;;;;6.35;1.70;;;28.50;93.10;;;;;;4153763;34;20091;-86
2021/01/05 11:32:50;;;;;;;3.78;0.90;;;30.50;87.40;;;;;;4150472;34;20064;-86
2021/01/05 11:35:18;;;;;;;6.45;1.37;;;30.30;86.10;;;;;;4154736;34;20572;-85
2021/01/05 11:37:46;;;;;;;3.78;1.20;;;29.50;87.80;;;;;;4145518;34;20056;-85
2021/01/05 11:40:16;;;;;;;4.78;1.30;;;27.90;90.60;;;;;;4157781;34;20108;-86
2021/01/05 11:42:44;;;;;;;8.98;1.75;;;27.70;92.20;;;;;;4151096;34;20504;-86
2021/01/05 11:45:13;;;;;;;5.20;1.20;;;27.30;92.40;;;;;;4152745;34;20134;-85
2021/01/05 11:47:42;;;;;;;7.72;1.42;;;;;;;;;;4145948;34;20518;-86
2021/01/05 11:50:11;;;;;;;5.03;1.10;;;;;;;;;;4144605;34;20122;-85
2021/01/05 11:52:39;;;;;;;10.20;1.27;;;;;;;;;;4154014;34;20052;-85
2021/01/05 11:55:09;;;;;;;7.20;1.48;;;;;;;;;;4161333;34;20117;-85
2021/01/05 11:57:37;;;;;;;3.67;2.25;;;;;;;;;;4151277;34;20096;-86
2021/01/05 12:00:11;;;;;;;3.00;1.10;;;;;;;;;;4160385;34;20080;-85
2021/01/05 12:02:41;;;;;;;7.18;2.08;;;;;;;;;;4153010;34;20126;-86
2021/01/05 12:05:12;;;;;;;5.53;1.42;;;;;;;;;;4151029;34;20598;-86
2021/01/05 12:07:40;;;;;;;5.57;2.47;;;;;;;;;;4152429;34;20115;-86
2021/01/05 12:10:10;;;;;;;5.75;1.20;;;;;;;;;;4140330;34;20075;-86
2021/01/05 12:12:39;;;;;;;7.45;2.35;;;;;;;;;;4135015;34;20083;-86
2021/01/05 12:15:08;;;;;;;8.45;2.12;;;;;;;;;;4150531;34;20549;-86
2021/01/05 12:17:38;;;;;;;6.10;1.35;;;;;;;;;;4157558;34;20072;-86
2021/01/05 12:20:06;;;;;;;3.25;1.17;;;;;;;;;;4154735;34;20119;-86
2021/01/05 12:22:35;;;;;;;7.57;1.75;;;;;;;;;;4152414;34;20060;-86
2021/01/05 12:25:03;;;;;;;4.90;1.90;;;;;;;;;;4154218;34;20378;-87
2021/01/05 12:27:32;;;;;;;4.10;1.25;;;;;;;;;;4154031;34;20065;-86
2021/01/05 12:30:00;;;;;;;2.45;1.45;;;;;;;;;;4157643;34;20072;-86
2021/01/05 12:32:29;;;;;;;5.00;1.10;;;;;;;;;;4158870;34;20056;-86
2021/01/05 12:34:57;;;;;;;5.40;1.70;;;;;;;;;;4158839;34;20079;-85
2021/01/05 12:37:25;;;;;;;5.50;1.42;;;;;;;;;;4151252;34;20132;-86
2021/01/05 12:39:54;;;;;;;3.35;1.33;;;;;;;;;;4159371;34;20322;-86
2021/01/05 12:42:23;;;;;;;4.75;1.52;;;;;;;;;;4155947;34;20144;-86
2021/01/05 12:44:54;;;;;;;3.72;1.12;;;;;;;;;;4151307;34;20201;-86
2021/01/05 12:47:23;;;;;;;4.40;1.20;;;;;;;;;;4147970;34;20124;-86
2021/01/05 12:49:52;;;;;;;4.62;1.40;;;;;;;;;;4148162;34;20060;-86
2021/01/05 12:52:20;;;;;;;5.07;1.20;;;;;;;;;;4138935;34;20064;-85
2021/01/05 12:54:49;;;;;;;6.12;1.35;;;;;;;;;;4150523;34;20592;-86
2021/01/05 12:57:18;;;;;;;5.50;1.37;;;;;;;;;;4162580;34;20619;-86
2021/01/05 12:59:47;;;;;;;6.10;1.30;;;;;;;;;;4148830;34;20080;-86
2021/01/05 13:02:20;;;;;;;3.45;1.12;;;;;;;;;;4155455;34;20060;-86
2021/01/05 13:04:49;;;;;;;3.92;0.98;;;;;;;;;;4154108;34;20119;-86
2021/01/05 13:07:19;;;;;;;6.07;0.90;;;;;;;;;;4144658;34;20087;-85
2021/01/05 13:09:52;;;;;;;6.00;1.02;;;;;;;;;;4141820;34;20512;-86
2021/01/05 13:12:21;;;;;;;6.47;1.33;;;;;;;;;;4153342;34;20056;-85
2021/01/05 13:14:50;;;;;;;2.83;0.80;;;;;;;;;;4148326;34;20056;-86
2021/01/05 13:17:18;;;;;;;5.40;1.30;;;;;;;;;;4151921;34;20090;-85
2021/01/05 13:19:47;;;;;;;2.97;1.00;;;;;;;;;;4151083;34;20103;-86
2021/01/05 13:22:16;;;;;;;4.62;1.12;;;;;;;;;;4162627;34;20108;-86
2021/01/05 13:24:44;;;;;;;6.28;0.90;;;;;;;;;;4152677;34;20162;-86
2021/01/05 13:27:13;;;;;;;3.55;0.90;;;;;;;;;;4156162;34;20052;-85
2021/01/05 13:29:41;;;;;;;4.20;1.00;;;;;;;;;;4155514;34;20167;-85
2021/01/05 13:32:17;;;;;;;7.75;0.93;;;;;;;;;;4148792;34;20110;-85
2021/01/05 13:34:45;;;;;;;6.25;1.15;;;;;;;;;;4158740;34;20437;-86
2021/01/05 13:37:16;;;;;;;4.05;1.02;;;;;;;;;;4149198;34;20192;-86
2021/01/05 13:39:46;;;;;;;4.20;1.23;;;;;;;;;;4152816;34;20464;-85
2021/01/05 13:42:17;;;;;;;4.93;0.77;;;;;;;;;;4151103;34;20067;-86